WetterOnline ( https://www.wetteronline.de )

Wetter aktuell Weert

Aktuelles Wetter: Eindhoven (22m)

6-stündlich | Neueste Meldungen
Ortszeit Temperatur Wetter
So, 19.01. 13:00 7.0° C wolkig
So, 19.01. 7:00 1.0° C fast wolkenlos
So, 19.01. 1:00 0.8° C wolkenlos
Sa, 18.01. 19:00 2.2° C wolkig
Sa, 18.01. 13:00 6.3° C bewölkt
Sa, 18.01. 7:00 3.9° C bedeckt
Sa, 18.01. 1:00 3.4° C wolkenlos
Fr, 17.01. 19:00 8.7° C bewölkt
Ortszeit Temperatur Wetter
So, 19.01. 16:25 7° C bewölkt
So, 19.01. 16:00 7.3° C bewölkt
So, 19.01. 15:55 7° C bewölkt
So, 19.01. 15:25 7° C bedeckt
So, 19.01. 15:06 8° C bewölkt
So, 19.01. 15:00 7.5° C bewölkt
So, 19.01. 14:58 8° C bedeckt
So, 19.01. 14:25 7° C bewölkt
So, 19.01. 14:00 7.1° C leicht bewölkt
So, 19.01. 13:25 7° C bedeckt
So, 19.01. 13:00 7.0° C wolkig
Ortszeit Relative Feuchte Sichtweite
So, 19.01. 13:00 76% 19 km
So, 19.01. 7:00 93% 21 km
So, 19.01. 1:00 95% 12 km
Sa, 18.01. 19:00 92% 45 km
Sa, 18.01. 13:00 78% 23 km
Sa, 18.01. 7:00 87% 45 km
Sa, 18.01. 1:00 89% 20 km
Fr, 17.01. 19:00 67% 40 km
Ortszeit Relative Feuchte Sichtweite
So, 19.01. 16:25 70% >10 km
So, 19.01. 16:00 72% 15 km
So, 19.01. 15:55 76% >10 km
So, 19.01. 15:25 76% >10 km
So, 19.01. 15:06 71% >10 km
So, 19.01. 15:00 72% 15 km
So, 19.01. 14:58 71% >10 km
So, 19.01. 14:25 76% >10 km
So, 19.01. 14:00 74% 17 km
So, 19.01. 13:25 70% >10 km
So, 19.01. 13:00 76% 19 km
Ortszeit Niederschlagsmenge Niederschlagsart
So, 19.01. 13:00 0.1 l/m2 in 6 Std. -
So, 19.01. 7:00 0.0 l/m2 in 12 Std. -
So, 19.01. 1:00 0.0 l/m2 in 6 Std. Sprühregen
Sa, 18.01. 19:00 0.4 l/m2 in 12 Std. Schneeregen
Sa, 18.01. 13:00 0.0 l/m2 in 6 Std. -
Sa, 18.01. 7:00 0.0 l/m2 in 12 Std. -
Sa, 18.01. 1:00 0.0 l/m2 in 6 Std. -
Fr, 17.01. 19:00 0.3 l/m2 in 12 Std. Regenschauer
Ortszeit Niederschlagsmenge Niederschlagsart
So, 19.01. 16:25 keine Meldung -
So, 19.01. 16:00 0.0 l/m2 in 1 Std. -
So, 19.01. 15:55 keine Meldung -
So, 19.01. 15:25 keine Meldung -
So, 19.01. 15:06 keine Meldung -
So, 19.01. 15:00 0.0 l/m2 in 1 Std. -
So, 19.01. 14:58 keine Meldung -
So, 19.01. 14:25 keine Meldung -
So, 19.01. 14:00 0.0 l/m2 in 1 Std. -
So, 19.01. 13:25 keine Meldung -
So, 19.01. 13:00 0.0 l/m2 in 1 Std. -
Ortszeit Stärke Spitze Richtung
km/h Bft. km/h Grad Sektor
So, 19.01. 13:00 18 3 25 20° N
So, 19.01. 7:00 7 2 14 280° W
So, 19.01. 1:00 7 2 18 260° W
Sa, 18.01. 19:00 4 1 32 230° SW
Sa, 18.01. 13:00 18 3 40 260° W
Sa, 18.01. 7:00 18 3 29 210° SW
Sa, 18.01. 1:00 14 3 54 210° SW
Fr, 17.01. 19:00 29 5 47 250° W
Ortszeit Stärke Spitze Richtung
km/h Bft. km/h Grad Sektor
So, 19.01. 16:25 13 3 - 350° N
So, 19.01. 16:00 14 3 29 - -
So, 19.01. 15:55 13 3 - 360° N
So, 19.01. 15:25 20 4 - 360° N
So, 19.01. 15:06 17 3 - 10° N
So, 19.01. 15:00 18 3 25 360° N
So, 19.01. 14:58 17 3 - 360° N
So, 19.01. 14:25 19 3 - 10° N
So, 19.01. 14:00 18 3 29 360° N
So, 19.01. 13:25 20 4 - 10° N
So, 19.01. 13:00 18 3 25 20° N
Ortszeit Untergrenze Bedeckung Gattung
total tief tief mittel hoch
So, 19.01. 13:00 870 m 5/8 5/8 - - -
So, 19.01. 7:00 840 m 1/8 1/8 - - -
So, 19.01. 1:00 - 0/8 0/8 - - -
Sa, 18.01. 19:00 - 5/8 5/8 - - -
Sa, 18.01. 13:00 510 m 7/8 7/8 - - -
Sa, 18.01. 7:00 - 8/8 8/8 - - -
Sa, 18.01. 1:00 - 0/8 0/8 - - -
Fr, 17.01. 19:00 - 7/8 7/8 - - -
Ortszeit Bedeckungsgrad in Achtel und Wolkenuntergrenze
So, 19.01. 16:25 5-7(1500m)
So, 19.01. 16:00 8
So, 19.01. 15:55 1-2(840m) 3-4(990m) 5-7(1200m)
So, 19.01. 15:25 8(1470m)
So, 19.01. 15:06 1-2(660m) 3-4(750m) 5-7(900m)
So, 19.01. 15:00 2(660m) 4(750m) 7(1500m)
So, 19.01. 14:58 3-4(690m) 3-4(810m) 8(1500m)
So, 19.01. 14:25 1-2(630m) 5-7(960m) 5-7(1140m)
So, 19.01. 14:00 4(1050m)
So, 19.01. 13:25 8(870m)
So, 19.01. 13:00 2(870m) 3(960m) 5(1080m)
Ortszeit Luftdruck NN (hPa) Tendenz (hPa in 3 Std.)
So, 19.01. 13:00 1040 + 1,8
So, 19.01. 7:00 1035 + 1,7
So, 19.01. 1:00 1031 + 1,5
Sa, 18.01. 19:00 1029 + 2,6
Sa, 18.01. 13:00 1025 + 1,4
Sa, 18.01. 7:00 1022 + 0,6
Sa, 18.01. 1:00 1020 + 1,3
Fr, 17.01. 19:00 1017 + 2,5
Ortszeit Luftdruck NN (hPa) Tendenz (hPa in 3 Std.)
So, 19.01. 16:25 1042 keine Meldung
So, 19.01. 16:00 1042 + 1,8
So, 19.01. 15:55 1041 keine Meldung
So, 19.01. 15:25 1041 keine Meldung
So, 19.01. 15:06 1040 keine Meldung
So, 19.01. 15:00 1041 + 1,2
So, 19.01. 14:58 1040 keine Meldung
So, 19.01. 14:25 1040 keine Meldung
So, 19.01. 14:00 1041 + 1,2
So, 19.01. 13:25 1040 keine Meldung
So, 19.01. 13:00 1040 + 1,8
Ortszeit Schneehöhe (cm)
So, 19.01. 13:00 -
So, 19.01. 7:00 -
So, 19.01. 1:00 -
Sa, 18.01. 19:00 -
Sa, 18.01. 13:00 -
Sa, 18.01. 7:00 -
Sa, 18.01. 1:00 -
Fr, 17.01. 19:00 -
Ortszeit Schneehöhe (cm)
So, 19.01. 16:25 -
So, 19.01. 16:00 -
So, 19.01. 15:55 -
So, 19.01. 15:25 -
So, 19.01. 15:06 -
So, 19.01. 15:00 -
So, 19.01. 14:58 -
So, 19.01. 14:25 -
So, 19.01. 14:00 -
So, 19.01. 13:25 -
So, 19.01. 13:00 -
Link zu dieser Seite / Seite empfehlen

Das Wetter in ...